Time;durP1;ratioP1;P1;durP2;ratioP2;P2;SDS_P1;SDS_P2;PMS_P1;PMS_P2;Temp;Humidity;BMP_temperature;BMP_pressure;BME280_temperature;BME280_humidity;BME280_pressure;Samples;Min_cycle;Max_cycle;Signal;HPM_P1;HPM_P2
2021/01/27 00:01:02;;;;;;;137.85;46.90;;;;;;;20.34;43.18;100781.59;5074400;28;20059;-82
2021/01/27 00:03:28;;;;;;;59.92;22.60;;;;;;;20.20;43.45;100784.19;5057819;28;20037;-83
2021/01/27 00:05:53;;;;;;;71.07;18.65;;;;;;;20.20;43.48;100786.94;5075920;28;20536;-82
2021/01/27 00:08:21;;;;;;;173.20;62.58;;;;;;;20.20;43.50;100798.84;5074685;28;20029;-83
2021/01/27 00:10:47;;;;;;;169.07;62.25;;;;;;;20.22;43.50;100792.91;5074659;28;20028;-82
2021/01/27 00:13:17;;;;;;;151.80;52.10;;;;;;;20.20;43.28;100795.28;5074363;28;20407;-83
2021/01/27 00:15:44;;;;;;;216.63;77.68;;;;;;;20.16;43.73;100794.41;5074323;28;20036;-82
2021/01/27 00:18:12;;;;;;;81.63;29.38;;;;;;;20.12;43.55;100786.06;5074502;28;20028;-83
2021/01/27 00:20:38;;;;;;;155.40;52.20;;;;;;;20.14;43.74;100782.91;5074541;28;20033;-83
2021/01/27 00:23:04;;;;;;;54.80;17.30;;;;;;;20.16;43.48;100788.88;5075505;28;20025;-82
2021/01/27 00:25:33;;;;;;;192.30;77.35;;;;;;;20.14;43.29;100780.94;5075320;28;20028;-82
2021/01/27 00:28:00;;;;;;;354.77;165.00;;;;;;;20.00;43.96;100777.16;5073878;28;20066;-83
2021/01/27 00:30:29;;;;;;;74.35;23.98;;;;;;;20.10;43.65;100780.09;5075485;28;20025;-86
2021/01/27 00:32:55;;;;;;;70.30;26.95;;;;;;;20.04;43.96;100778.03;5075357;28;20537;-82
2021/01/27 00:35:36;;;;;;;74.18;24.58;;;;;;;20.06;43.85;100786.75;5075016;28;20183;-83
2021/01/27 00:38:13;;;;;;;61.08;22.33;;;;;;;20.06;43.76;100784.78;5074832;28;20086;-82
2021/01/27 00:40:38;;;;;;;50.13;15.00;;;;;;;20.00;44.02;100791.84;5074203;28;20043;-81
2021/01/27 00:43:04;;;;;;;50.72;16.73;;;;;;;20.09;43.90;100791.53;5073944;28;20566;-82
2021/01/27 00:45:30;;;;;;;133.20;70.10;;;;;;;20.05;44.01;100788.75;5057270;28;20116;-83
2021/01/27 00:47:55;;;;;;;50.72;13.13;;;;;;;20.02;44.41;100794.22;5073770;28;20429;-82
2021/01/27 00:50:21;;;;;;;41.80;15.18;;;;;;;20.13;43.87;100790.44;5073568;28;20471;-83
2021/01/27 00:52:47;;;;;;;91.60;33.85;;;;;;;20.12;43.72;100791.59;5073950;28;20479;-82
2021/01/27 00:55:16;;;;;;;95.30;41.00;;;;;;;20.12;43.52;100801.91;5072996;28;20033;-82
2021/01/27 00:57:41;;;;;;;63.70;21.38;;;;;;;20.14;43.91;100797.56;5074607;28;20391;-84
2021/01/27 01:00:34;;;;;;;49.80;16.77;;;;;;;20.11;43.82;100803.88;5074873;28;20103;-84
2021/01/27 01:02:59;;;;;;;44.60;14.95;;;;;;;20.18;43.69;100798.44;5073064;28;20403;-81
2021/01/27 01:05:37;;;;;;;41.35;12.55;;;;;;;20.15;43.68;100799.16;5074807;28;20029;-83
2021/01/27 01:08:05;;;;;;;33.50;11.02;;;;;;;20.25;43.42;100786.59;5073519;28;20486;-82
2021/01/27 01:10:36;;;;;;;47.15;11.57;;;;;;;20.12;43.52;100788.84;5073364;28;20032;-84
2021/01/27 01:13:03;;;;;;;42.92;13.48;;;;;;;20.09;43.48;100781.25;5073155;28;20053;-83
2021/01/27 01:15:29;;;;;;;31.38;10.45;;;;;;;20.05;43.66;100772.09;5074404;28;20062;-83
2021/01/27 01:17:56;;;;;;;37.42;12.25;;;;;;;19.55;45.03;100776.91;5073390;28;20037;-86
2021/01/27 01:20:22;;;;;;;33.05;11.68;;;;;;;19.69;44.53;100773.56;5073123;28;20081;-82
2021/01/27 01:22:51;;;;;;;36.08;11.63;;;;;;;19.70;44.28;100760.50;5074266;28;20378;-81
2021/01/27 01:25:19;;;;;;;29.98;9.32;;;;;;;19.68;44.16;100763.66;5072960;28;20055;-82
2021/01/27 01:27:45;;;;;;;31.52;9.77;;;;;;;19.68;44.21;100767.22;5074356;28;20027;-82
2021/01/27 01:30:25;;;;;;;32.03;10.55;;;;;;;19.70;44.13;100768.81;5072801;28;20028;-81
2021/01/27 01:32:56;;;;;;;27.40;9.65;;;;;;;19.80;43.68;100770.94;5073102;28;20040;-85
2021/01/27 01:35:23;;;;;;;28.45;10.20;;;;;;;19.75;43.76;100763.75;5073847;28;20078;-83
2021/01/27 01:37:49;;;;;;;28.08;9.57;;;;;;;19.75;43.87;100762.97;5074101;28;20052;-82
2021/01/27 01:40:40;;;;;;;31.30;8.80;;;;;;;19.67;43.88;100753.75;5073052;28;20414;-85
2021/01/27 01:43:11;;;;;;;26.42;9.05;;;;;;;19.70;43.74;100750.22;5073640;28;20083;-83
2021/01/27 01:45:39;;;;;;;27.88;8.25;;;;;;;19.69;43.77;100743.09;5073869;28;20049;-82
2021/01/27 01:48:22;;;;;;;28.15;7.88;;;;;;;19.57;43.50;100749.66;5072714;28;20042;-81
2021/01/27 01:50:52;;;;;;;35.40;9.25;;;;;;;19.57;43.36;100746.06;5073639;28;20103;-82
2021/01/27 01:53:19;;;;;;;28.85;9.77;;;;;;;19.45;43.59;100743.50;5072582;28;20500;-86
2021/01/27 01:55:48;;;;;;;26.15;8.82;;;;;;;19.36;43.69;100741.00;5073504;28;20395;-82
2021/01/27 01:58:13;;;;;;;21.92;8.20;;;;;;;19.34;43.66;100738.56;5074064;28;20024;-82
2021/01/27 02:00:41;;;;;;;30.27;9.07;;;;;;;19.31;43.41;100742.09;5072461;28;20170;-83
2021/01/27 02:03:13;;;;;;;23.88;7.45;;;;;;;19.28;43.56;100745.63;5072522;28;20020;-86
2021/01/27 02:05:39;;;;;;;33.78;8.60;;;;;;;19.38;43.50;100744.97;5072471;28;20032;-82
2021/01/27 02:08:05;;;;;;;28.27;8.43;;;;;;;19.39;43.35;100749.34;5071693;28;20025;-82
2021/01/27 02:10:31;;;;;;;23.50;7.57;;;;;;;19.32;43.53;100745.66;5072399;28;20029;-84
2021/01/27 02:13:15;;;;;;;24.67;6.85;;;;;;;19.27;43.51;100743.19;5055277;28;20171;-84
2021/01/27 02:16:10;;;;;;;20.67;7.07;;;;;;;19.32;43.36;100753.97;5073426;28;20032;-82
2021/01/27 02:18:57;;;;;;;26.27;6.93;;;;;;;19.28;43.49;100767.00;5068924;28;20028;-82
2021/01/27 02:21:52;;;;;;;23.25;7.20;;;;;;;19.25;43.54;100773.25;5072210;28;20024;-83
2021/01/27 02:24:49;;;;;;;20.25;6.50;;;;;;;19.26;43.54;100777.63;5071999;28;20120;-86
2021/01/27 02:27:25;;;;;;;22.55;7.10;;;;;;;19.24;43.46;100789.06;5073486;28;20028;-83
2021/01/27 02:30:11;;;;;;;24.63;7.32;;;;;;;19.28;43.66;100784.41;5073368;28;20025;-82
2021/01/27 02:33:11;;;;;;;30.08;8.57;;;;;;;19.19;43.72;100791.34;5072235;28;20020;-83
2021/01/27 02:35:59;;;;;;;23.75;6.20;;;;;;;19.21;43.79;100797.34;5072144;28;20089;-82
2021/01/27 02:38:55;;;;;;;21.33;6.88;;;;;;;19.28;43.55;100803.81;5081428;28;20033;-85
2021/01/27 02:41:37;;;;;;;17.90;6.45;;;;;;;19.28;43.45;100803.81;5074061;28;20036;-85
2021/01/27 02:44:10;;;;;;;17.38;6.43;;;;;;;19.40;43.25;100791.72;5073232;28;20025;-82
2021/01/27 02:46:48;;;;;;;14.43;7.03;;;;;;;19.40;43.35;100800.81;5071944;28;20036;-82
2021/01/27 02:49:26;;;;;;;17.35;5.82;;;;;;;19.39;43.36;100796.44;5070526;28;20082;-82
2021/01/27 02:51:54;;;;;;;17.30;5.78;;;;;;;19.40;43.29;100788.94;5051688;28;20086;-83
2021/01/27 02:54:24;;;;;;;16.13;5.68;;;;;;;19.41;42.94;100802.41;5051792;28;20025;-82
2021/01/27 02:57:06;;;;;;;17.00;5.20;;;;;;;19.38;42.91;100803.16;5051591;28;20025;-82
2021/01/27 03:00:07;;;;;;;19.08;6.00;;;;;;;19.37;43.09;100804.34;5068563;28;20025;-82
2021/01/27 03:02:49;;;;;;;12.90;5.93;;;;;;;19.21;43.30;100814.75;5049462;28;20036;-82
2021/01/27 03:05:17;;;;;;;19.00;5.78;;;;;;;19.11;43.68;100815.34;5052665;28;20032;-81
2021/01/27 03:07:47;;;;;;;15.88;5.60;;;;;;;19.09;43.75;100814.94;5051757;28;20025;-81
2021/01/27 03:10:18;;;;;;;;;;;;;;;19.03;43.77;100819.16;5052138;28;20100;-83
2021/01/27 03:12:47;;;;;;;17.13;5.25;;;;;;;19.17;43.30;100821.41;5051441;28;19924;-84
2021/01/27 03:15:13;;;;;;;19.60;6.40;;;;;;;19.14;43.32;100822.94;5051535;28;20040;-82
2021/01/27 03:17:42;;;;;;;16.55;5.90;;;;;;;19.11;43.42;100818.91;5051734;28;20099;-82
2021/01/27 03:20:14;;;;;;;17.80;5.85;;;;;;;19.05;43.43;100811.31;5055227;28;20094;-82
2021/01/27 03:22:43;;;;;;;13.73;4.78;;;;;;;18.99;43.61;100815.53;5039000;28;20033;-82
2021/01/27 03:25:17;;;;;;;17.75;5.13;;;;;;;18.94;43.69;100813.06;5057045;28;20472;-80
2021/01/27 03:28:17;;;;;;;14.25;5.68;;;;;;;18.93;43.63;100805.94;5057002;28;20032;-82
2021/01/27 03:30:43;;;;;;;12.45;5.35;;;;;;;18.94;43.68;100786.19;5047815;28;20364;-82
2021/01/27 03:33:15;;;;;;;16.02;5.80;;;;;;;18.94;43.65;100797.25;5055247;28;20036;-82
2021/01/27 03:35:50;;;;;;;18.63;5.72;;;;;;;18.88;43.39;100803.47;5056370;28;20127;-82
2021/01/27 03:38:38;;;;;;;23.35;6.45;;;;;;;18.91;43.65;100794.44;5055129;28;20024;-82
2021/01/27 03:41:20;;;;;;;12.55;5.15;;;;;;;18.89;43.33;100796.75;5056416;28;20107;-82
2021/01/27 03:44:33;;;;;;;15.07;5.50;;;;;;;18.91;43.44;100797.22;5056080;28;20167;-82
2021/01/27 03:47:25;;;;;;;17.85;4.88;;;;;;;18.84;43.34;100759.91;5049806;28;20087;-86
2021/01/27 03:50:15;;;;;;;16.40;5.47;;;;;;;18.87;43.60;100752.03;5056064;28;20044;-81
2021/01/27 03:52:45;;;;;;;16.40;5.13;;;;;;;18.80;43.29;100749.94;5040868;28;20086;-82
2021/01/27 03:55:32;;;;;;;10.30;4.40;;;;;;;18.78;43.61;100760.59;5054614;28;20041;-82
2021/01/27 03:58:06;;;;;;;13.15;4.85;;;;;;;18.74;43.60;100752.22;5056212;28;20075;-82
2021/01/27 04:00:33;;;;;;;12.90;4.75;;;;;;;18.75;43.83;100759.38;5054908;28;20021;-82
2021/01/27 04:03:14;;;;;;;14.07;4.80;;;;;;;18.73;43.79;100766.41;5071884;28;20506;-82
2021/01/27 04:05:40;;;;;;;12.35;4.53;;;;;;;18.78;43.50;100768.88;5055056;28;20096;-86
2021/01/27 04:08:06;;;;;;;12.65;5.03;;;;;;;18.75;43.60;100775.97;5054498;28;20033;-82
2021/01/27 04:10:32;;;;;;;15.75;5.80;;;;;;;18.73;43.68;100780.25;5054493;28;20025;-83
2021/01/27 04:12:58;;;;;;;18.48;5.22;;;;;;;18.71;43.50;100782.59;5054315;28;20037;-86
2021/01/27 04:15:24;;;;;;;11.77;4.43;;;;;;;18.67;43.37;100793.63;5054327;28;20039;-82
2021/01/27 04:17:50;;;;;;;14.48;4.55;;;;;;;18.65;43.78;100795.91;5055529;28;20095;-86
2021/01/27 04:20:15;;;;;;;14.93;5.53;;;;;;;18.63;43.65;100787.16;5055734;28;20036;-82
2021/01/27 04:22:41;;;;;;;17.73;5.28;;;;;;;18.54;43.50;100789.38;5055442;28;20056;-83
2021/01/27 04:25:08;;;;;;;14.00;4.55;;;;;;;18.49;43.50;100789.66;5055182;28;20395;-82
2021/01/27 04:27:34;;;;;;;10.05;4.45;;;;;;;18.41;43.83;100790.69;5054075;28;20056;-82
2021/01/27 04:29:59;;;;;;;10.55;4.65;;;;;;;18.39;43.67;100806.84;5053882;28;20028;-82
2021/01/27 04:32:25;;;;;;;14.00;5.05;;;;;;;18.32;43.55;100812.22;5054587;28;20021;-83
2021/01/27 04:34:51;;;;;;;12.30;4.25;;;;;;;18.28;43.59;100825.97;5053842;28;20563;-81
2021/01/27 04:37:16;;;;;;;10.93;4.20;;;;;;;18.25;43.46;100832.25;5055100;28;20116;-82
2021/01/27 04:39:42;;;;;;;11.38;4.90;;;;;;;18.23;43.73;100835.38;5053827;28;20067;-82
2021/01/27 04:42:10;;;;;;;10.70;4.88;;;;;;;18.19;43.62;100833.69;5054149;28;20033;-82
2021/01/27 04:44:36;;;;;;;16.15;5.88;;;;;;;18.16;43.52;100851.00;5070663;28;20082;-85
2021/01/27 04:47:06;;;;;;;14.82;4.53;;;;;;;18.12;43.62;100850.13;5053755;28;20116;-82
2021/01/27 04:49:40;;;;;;;12.93;4.68;;;;;;;18.14;43.56;100850.59;5037241;28;20112;-82
2021/01/27 04:52:18;;;;;;;11.15;4.78;;;;;;;18.14;43.50;100862.44;5053899;28;20441;-82
2021/01/27 04:55:01;;;;;;;10.13;5.45;;;;;;;18.14;43.68;100859.69;5053542;28;20025;-82
2021/01/27 04:57:51;;;;;;;7.07;4.60;;;;;;;18.20;43.65;100860.16;5038194;28;20025;-82
2021/01/27 05:00:28;;;;;;;10.23;4.22;;;;;;;18.19;43.42;100858.56;5053444;28;20071;-82
2021/01/27 05:02:59;;;;;;;12.60;5.28;;;;;;;18.11;43.55;100860.38;5054785;28;20557;-82
2021/01/27 05:05:29;;;;;;;16.77;5.30;;;;;;;18.15;43.37;100852.19;5053619;28;20060;-81
2021/01/27 05:08:10;;;;;;;11.00;5.63;;;;;;;18.16;43.40;100851.00;5054630;28;20502;-83
2021/01/27 05:10:53;;;;;;;10.52;4.85;;;;;;;18.14;43.61;100853.34;5053496;28;20048;-82
2021/01/27 05:13:26;;;;;;;15.10;5.32;;;;;;;18.12;43.47;100856.44;5052982;28;20057;-81
2021/01/27 05:15:55;;;;;;;11.30;5.25;;;;;;;18.11;43.50;100854.06;5054699;28;20060;-82
2021/01/27 05:18:20;;;;;;;16.98;4.80;;;;;;;18.07;43.43;100844.91;5053479;28;20116;-85
2021/01/27 05:20:50;;;;;;;16.83;4.32;;;;;;;18.06;43.47;100846.84;5054338;28;20060;-83
2021/01/27 05:23:17;;;;;;;12.35;4.57;;;;;;;18.00;43.57;100838.03;5054529;28;20028;-82
2021/01/27 05:26:06;;;;;;;15.23;5.78;;;;;;;17.90;43.42;100832.25;5053150;28;20025;-82
2021/01/27 05:28:40;;;;;;;14.20;4.85;;;;;;;17.92;43.49;100832.72;5054559;28;20031;-82
2021/01/27 05:31:06;;;;;;;13.90;4.40;;;;;;;17.90;43.47;100819.22;5037387;28;20427;-86
2021/01/27 05:33:48;;;;;;;13.85;5.43;;;;;;;17.77;43.54;100817.75;5053979;28;20115;-83
2021/01/27 05:36:27;;;;;;;14.63;4.75;;;;;;;17.75;43.47;100826.38;5052879;28;20430;-82
2021/01/27 05:39:15;;;;;;;11.27;4.65;;;;;;;17.68;43.44;100825.38;5052932;28;20063;-82
2021/01/27 05:41:42;;;;;;;18.38;5.68;;;;;;;17.68;43.72;100811.56;5052760;28;20190;-82
2021/01/27 05:44:15;;;;;;;15.98;5.25;;;;;;;17.69;43.64;100808.47;5054089;28;20029;-83
2021/01/27 05:46:41;;;;;;;19.17;5.85;;;;;;;17.63;43.63;100809.09;5052522;28;20487;-83
2021/01/27 05:49:27;;;;;;;18.77;4.95;;;;;;;17.61;43.66;100814.19;5053790;28;20021;-85
2021/01/27 05:51:53;;;;;;;16.40;6.00;;;;;;;17.65;43.49;100820.59;5052460;28;20029;-82
2021/01/27 05:54:20;;;;;;;10.43;4.55;;;;;;;17.61;43.45;100822.47;5052016;28;20021;-82
2021/01/27 05:56:46;;;;;;;12.88;4.80;;;;;;;17.56;43.51;100823.53;5035548;28;20033;-81
2021/01/27 05:59:21;;;;;;;12.63;5.85;;;;;;;17.47;43.38;100823.75;5052301;28;20013;-81
2021/01/27 06:01:49;;;;;;;13.75;5.85;;;;;;;17.48;43.56;100821.78;5052374;28;20115;-81
2021/01/27 06:04:24;;;;;;;14.23;5.65;;;;;;;17.42;43.55;100815.72;5052235;28;20021;-81
2021/01/27 06:06:50;;;;;;;15.10;5.65;;;;;;;17.39;43.48;100818.41;5053482;28;20087;-81
2021/01/27 06:09:43;;;;;;;12.45;5.20;;;;;;;17.33;43.46;100809.56;5052229;28;20029;-81
2021/01/27 06:12:20;;;;;;;15.57;4.97;;;;;;;17.32;43.32;100815.47;5053026;28;20031;-85
2021/01/27 06:14:48;;;;;;;16.85;5.55;;;;;;;17.22;43.55;100821.50;5052215;28;20059;-81
2021/01/27 06:17:17;;;;;;;16.17;6.25;;;;;;;17.28;43.51;100834.69;5068669;28;20468;-81
2021/01/27 06:19:56;;;;;;;15.02;5.63;;;;;;;17.19;43.86;100834.88;5051930;28;20074;-82
2021/01/27 06:22:40;;;;;;;20.73;5.75;;;;;;;17.13;43.45;100835.47;5052006;28;20032;-80
2021/01/27 06:25:26;;;;;;;13.65;5.80;;;;;;;17.08;43.71;100853.13;5053268;28;20024;-81
2021/01/27 06:28:08;;;;;;;13.57;5.65;;;;;;;16.98;43.70;100848.09;5035106;28;20052;-85
2021/01/27 06:30:54;;;;;;;14.80;5.70;;;;;;;17.00;43.58;100845.78;5051976;28;20049;-81
2021/01/27 06:33:29;;;;;;;15.68;6.30;;;;;;;16.97;43.85;100843.75;5053073;28;20025;-81
2021/01/27 06:36:27;;;;;;;17.83;6.38;;;;;;;16.91;43.97;100832.16;5051810;28;20061;-81
2021/01/27 06:38:59;;;;;;;15.40;6.65;;;;;;;16.94;43.57;100841.69;5051818;28;20029;-83
2021/01/27 06:41:33;;;;;;;17.13;5.53;;;;;;;17.01;43.79;100833.59;5053468;28;20017;-83
2021/01/27 06:44:31;;;;;;;14.07;5.28;;;;;;;16.94;43.81;100829.84;5052355;28;20033;-86
2021/01/27 06:47:24;;;;;;;16.73;6.78;;;;;;;16.78;44.08;100830.63;5040805;28;20119;-85
2021/01/27 06:50:05;;;;;;;13.40;6.00;;;;;;;16.79;44.01;100835.00;5051500;28;20021;-82
2021/01/27 06:52:37;;;;;;;17.30;6.60;;;;;;;16.85;43.95;100824.47;5052837;28;20052;-81
2021/01/27 06:55:36;;;;;;;13.35;5.53;;;;;;;16.82;43.98;100837.03;5055382;28;20079;-81
2021/01/27 06:58:07;;;;;;;17.08;7.15;;;;;;;16.89;43.81;100840.00;5057094;28;20033;-82
2021/01/27 07:00:55;;;;;;;15.55;6.10;;;;;;;16.93;43.89;100842.84;5055602;28;20025;-80
2021/01/27 07:03:40;;;;;;;12.65;6.78;;;;;;;16.86;44.48;100843.47;5056042;28;20121;-81
2021/01/27 07:06:48;;;;;;;19.80;7.05;;;;;;;16.94;44.42;100854.69;5056920;28;20505;-81
2021/01/27 07:09:26;;;;;;;26.38;7.50;;;;;;;16.94;44.33;100858.25;5055794;28;20080;-81
2021/01/27 07:12:10;;;;;;;24.27;7.60;;;;;;;16.99;44.48;100866.25;5055869;28;20052;-86
2021/01/27 07:14:57;;;;;;;18.42;7.55;;;;;;;17.12;44.22;100870.56;5055349;28;20519;-82
2021/01/27 07:17:56;;;;;;;16.63;7.50;;;;;;;17.12;44.22;100862.28;5055730;28;20060;-83
2021/01/27 07:20:24;;;;;;;20.38;6.47;;;;;;;16.97;44.52;100857.53;5055941;28;20056;-82
2021/01/27 07:23:01;;;;;;;15.90;6.75;;;;;;;17.04;44.08;100854.97;5055600;28;20025;-83
2021/01/27 07:26:01;;;;;;;21.58;7.40;;;;;;;16.87;44.11;100856.09;5057616;28;20031;-87
2021/01/27 07:28:26;;;;;;;;;;;;;;;16.94;44.18;100869.31;5056956;28;20024;-85
2021/01/27 07:31:11;;;;;;;25.92;9.27;;;;;;;16.89;44.16;100872.31;5056300;28;20421;-85
2021/01/27 07:33:52;;;;;;;71.72;17.90;;;;;;;16.74;44.81;100870.31;5057398;28;20566;-84
2021/01/27 07:36:44;;;;;;;65.60;19.02;;;;;;;16.51;46.23;100886.56;5056121;28;20025;-85
2021/01/27 07:39:16;;;;;;;72.45;16.38;;;;;;;16.87;45.02;100888.41;5057221;28;20029;-84
2021/01/27 07:41:55;;;;;;;147.88;24.58;;;;;;;17.17;44.12;100878.59;5055712;28;20036;-82
2021/01/27 07:44:23;;;;;;;115.60;18.55;;;;;;;17.26;44.11;100875.66;5055464;28;20056;-81
2021/01/27 07:47:11;;;;;;;86.53;17.23;;;;;;;17.26;43.82;100881.19;5056057;28;20501;-83
2021/01/27 07:49:43;;;;;;;56.28;14.05;;;;;;;17.17;44.27;100883.31;5039675;28;20029;-83
2021/01/27 07:52:20;;;;;;;67.55;14.02;;;;;;;17.09;44.16;100881.53;5055318;28;20044;-84
2021/01/27 07:55:00;;;;;;;56.45;13.50;;;;;;;17.14;44.12;100873.78;5055176;28;20028;-83
2021/01/27 07:57:43;;;;;;;51.03;13.23;;;;;;;17.09;44.04;100879.56;5055453;28;20021;-83
2021/01/27 08:00:12;;;;;;;143.63;61.47;;;;;;;17.02;44.59;100881.34;5059942;28;20021;-83
2021/01/27 08:02:59;;;;;;;65.00;33.03;;;;;;;17.15;44.16;100886.44;5097502;28;20024;-84
2021/01/27 08:05:25;;;;;;;89.25;39.70;;;;;;;17.24;44.00;100891.00;5074455;28;20052;-81
2021/01/27 08:08:05;;;;;;;103.85;30.23;;;;;;;17.16;44.12;100888.03;5074685;28;20029;-85
2021/01/27 08:10:34;;;;;;;67.47;15.50;;;;;;;17.26;43.96;100885.91;5067662;28;20036;-84
2021/01/27 08:13:34;;;;;;;41.03;11.68;;;;;;;17.15;43.86;100891.97;5074099;28;20068;-84
2021/01/27 08:16:26;;;;;;;50.05;13.05;;;;;;;17.13;43.94;100893.47;5064576;28;20032;-81
2021/01/27 08:19:10;;;;;;;77.85;16.83;;;;;;;17.20;44.09;100894.44;5063572;28;20033;-82
2021/01/27 08:21:45;;;;;;;111.55;17.15;;;;;;;17.04;44.34;100901.09;5073539;28;20383;-83
2021/01/27 08:24:35;;;;;;;227.02;107.35;;;;;;;17.03;44.45;100911.34;5074605;28;20665;-83
2021/01/27 08:27:10;;;;;;;69.20;15.23;;;;;;;17.29;43.98;100910.03;5074433;28;20115;-83
2021/01/27 08:29:38;;;;;;;62.25;12.48;;;;;;;17.33;44.15;100919.25;5074194;28;20070;-84
2021/01/27 08:32:25;;;;;;;65.65;14.00;;;;;;;17.40;43.77;100928.53;5073036;28;20398;-83
2021/01/27 08:35:27;;;;;;;110.35;16.50;;;;;;;17.26;44.00;100924.56;5074094;28;20075;-82
2021/01/27 08:38:25;;;;;;;88.20;23.35;;;;;;;17.32;44.10;100931.44;5073701;28;20029;-83
2021/01/27 08:40:51;;;;;;;79.13;20.42;;;;;;;17.27;44.34;100926.97;5074993;28;20032;-84
2021/01/27 08:43:17;;;;;;;88.97;17.95;;;;;;;17.22;44.34;100927.22;5074165;28;20054;-81
2021/01/27 08:45:46;;;;;;;87.85;21.25;;;;;;;17.39;44.03;100924.16;5073986;28;20552;-82
2021/01/27 08:48:14;;;;;;;54.58;13.35;;;;;;;17.39;43.88;100928.88;5074000;28;20128;-83
2021/01/27 08:50:45;;;;;;;74.80;15.48;;;;;;;17.38;43.92;100933.59;5074181;28;20086;-81
2021/01/27 08:53:20;;;;;;;49.28;13.27;;;;;;;17.31;43.92;100938.94;5075234;28;20036;-82
2021/01/27 08:55:45;;;;;;;57.20;12.10;;;;;;;17.42;43.88;100928.16;5073253;28;20467;-85
2021/01/27 08:58:29;;;;;;;57.90;12.88;;;;;;;17.24;44.11;100932.41;5072515;28;20060;-82
2021/01/27 09:01:06;;;;;;;50.40;14.20;;;;;;;17.24;44.09;100921.38;5074612;28;20437;-81
2021/01/27 09:03:37;;;;;;;75.80;16.58;;;;;;;17.24;43.77;100919.41;5073392;28;20033;-82
2021/01/27 09:06:06;;;;;;;46.88;14.13;;;;;;;17.21;44.04;100925.63;5065519;28;20036;-82
2021/01/27 09:08:33;;;;;;;90.65;21.25;;;;;;;17.33;43.83;100935.81;5059398;28;20040;-82
2021/01/27 09:11:02;;;;;;;108.70;19.85;;;;;;;17.35;43.88;100939.00;5025439;28;20025;-84
2021/01/27 09:13:41;;;;;;;69.63;16.90;;;;;;;17.13;44.17;100930.16;5065143;28;20105;-85
2021/01/27 09:16:23;;;;;;;51.58;11.88;;;;;;;17.22;43.80;100935.50;5073484;28;20620;-83
2021/01/27 09:19:14;;;;;;;31.13;10.82;;;;;;;17.28;43.92;100938.81;5069170;28;20083;-82
2021/01/27 09:21:39;;;;;;;66.07;12.63;;;;;;;17.32;43.80;100936.97;5072432;28;20078;-85
2021/01/27 09:24:16;;;;;;;36.00;13.02;;;;;;;17.30;43.84;100953.06;5068710;28;20036;-83
2021/01/27 09:26:51;;;;;;;55.97;13.00;;;;;;;17.33;43.74;100949.63;5072955;28;20032;-82
2021/01/27 09:29:26;;;;;;;44.20;20.80;;;;;;;17.30;43.87;100948.34;5073207;28;20495;-83
2021/01/27 09:31:53;;;;;;;41.72;18.08;;;;;;;17.29;43.72;100940.44;5066691;28;20411;-87
2021/01/27 09:34:27;;;;;;;57.90;20.90;;;;;;;17.19;43.76;100939.78;5073591;28;20033;-83
2021/01/27 09:37:08;;;;;;;105.22;29.30;;;;;;;17.36;43.70;100952.47;5072645;28;20032;-82
2021/01/27 09:39:40;;;;;;;53.65;23.20;;;;;;;17.31;43.87;100954.72;5071827;28;20032;-85
2021/01/27 09:42:41;;;;;;;35.15;12.88;;;;;;;17.20;43.83;100959.91;5072611;28;20491;-84
2021/01/27 09:45:10;;;;;;;64.05;16.17;;;;;;;17.36;43.73;100957.19;5015584;28;20029;-83
2021/01/27 09:47:42;;;;;;;31.23;13.73;;;;;;;17.38;43.73;100950.19;5062337;28;20040;-83
2021/01/27 09:50:09;;;;;;;46.22;16.38;;;;;;;17.44;43.72;100953.47;5069525;28;20114;-82
2021/01/27 09:52:34;;;;;;;28.58;12.82;;;;;;;17.50;43.57;100949.28;5068845;28;20032;-83
2021/01/27 09:55:12;;;;;;;24.92;13.98;;;;;;;17.48;43.41;100944.13;5071637;28;20489;-87
2021/01/27 09:57:40;;;;;;;42.25;17.48;;;;;;;17.54;43.48;100955.72;5071604;28;20081;-80
2021/01/27 10:00:09;;;;;;;38.35;18.52;;;;;;;17.50;44.06;100943.75;5069404;28;20119;-82
2021/01/27 10:02:36;;;;;;;40.58;22.33;;;;;;;17.58;43.77;100948.31;5069878;28;20032;-80
2021/01/27 10:05:33;;;;;;;54.30;22.05;;;;;;;17.59;43.83;100947.16;5072815;28;20483;-83
2021/01/27 10:08:00;;;;;;;84.57;23.30;;;;;;;17.65;43.68;100937.44;5071945;28;20379;-84
2021/01/27 10:10:26;;;;;;;179.88;29.02;;;;;;;17.62;44.00;100932.66;5070954;28;20028;-83
2021/01/27 10:12:56;;;;;;;180.25;36.00;;;;;;;17.81;43.60;100931.94;5072397;28;20028;-81
2021/01/27 10:15:31;;;;;;;183.00;33.22;;;;;;;17.69;44.02;100932.03;5070583;28;20060;-83
2021/01/27 10:18:12;;;;;;;255.32;35.22;;;;;;;17.66;44.18;100928.00;5071894;28;20482;-82
2021/01/27 10:20:40;;;;;;;128.85;21.63;;;;;;;17.89;43.50;100927.41;5069885;28;20052;-81
2021/01/27 10:23:11;;;;;;;152.93;19.42;;;;;;;17.92;43.66;100930.25;5070633;28;20499;-80
2021/01/27 10:25:39;;;;;;;90.95;17.17;;;;;;;18.07;43.58;100936.94;5071154;28;20051;-81
2021/01/27 10:28:11;;;;;;;97.18;15.18;;;;;;;17.95;43.44;100939.78;5070791;28;20479;-80
2021/01/27 10:30:59;;;;;;;82.03;15.57;;;;;;;17.95;43.45;100939.78;5069339;28;20020;-81
2021/01/27 10:33:39;;;;;;;119.05;16.00;;;;;;;17.94;43.30;100940.97;5070338;28;20020;-80
2021/01/27 10:36:33;;;;;;;83.00;19.65;;;;;;;17.98;43.62;100941.81;5070059;28;20430;-81
2021/01/27 10:39:20;;;;;;;136.30;23.05;;;;;;;18.10;43.51;100947.25;5070327;28;20040;-81
2021/01/27 10:41:49;;;;;;;132.25;41.67;;;;;;;18.14;43.28;100945.41;5070832;28;20029;-78
2021/01/27 10:44:23;;;;;;;65.45;31.08;;;;;;;18.10;43.41;100936.22;5071902;28;20112;-79
2021/01/27 10:46:52;;;;;;;92.32;39.67;;;;;;;18.29;43.17;100935.47;5065754;28;20033;-80
2021/01/27 10:49:18;;;;;;;79.82;41.97;;;;;;;18.43;42.92;100930.22;5071553;28;20058;-78
2021/01/27 10:51:44;;;;;;;55.33;19.13;;;;;;;18.48;42.76;100934.69;5070239;28;20123;-77
2021/01/27 10:54:11;;;;;;;48.45;22.67;;;;;;;18.66;42.48;100930.38;5069697;28;20028;-78
2021/01/27 10:56:37;;;;;;;33.83;11.20;;;;;;;18.72;42.41;100937.22;5059323;28;20419;-78
2021/01/27 10:59:03;;;;;;;41.55;11.18;;;;;;;18.75;42.47;100936.50;5070562;28;20024;-78
2021/01/27 11:01:28;;;;;;;44.88;12.90;;;;;;;18.75;42.36;100936.50;5069570;28;20036;-78
2021/01/27 11:03:54;;;;;;;32.00;10.95;;;;;;;18.81;42.40;100943.34;5069780;28;20482;-79
2021/01/27 11:06:19;;;;;;;70.38;10.88;;;;;;;18.69;42.79;100940.72;5068203;28;20035;-78
2021/01/27 11:08:45;;;;;;;83.47;14.05;;;;;;;18.88;42.31;100937.16;5071176;28;20071;-78
2021/01/27 11:11:12;;;;;;;40.25;9.90;;;;;;;18.80;42.33;100925.13;5068275;28;20123;-77
2021/01/27 11:13:39;;;;;;;53.83;10.50;;;;;;;18.84;42.13;100926.03;5070212;28;20059;-77
2021/01/27 11:16:09;;;;;;;78.50;10.88;;;;;;;18.88;42.16;100933.59;5069648;28;20478;-76
2021/01/27 11:18:35;;;;;;;84.50;14.63;;;;;;;18.92;42.24;100931.69;5071161;28;20454;-77
2021/01/27 11:21:02;;;;;;;64.10;12.15;;;;;;;18.96;42.14;100922.28;5071884;28;20048;-78
2021/01/27 11:23:28;;;;;;;89.93;11.13;;;;;;;18.94;42.14;100923.81;5071073;28;20108;-78
2021/01/27 11:25:53;;;;;;;44.72;10.75;;;;;;;19.04;42.13;100912.97;5069924;28;20111;-78
2021/01/27 11:28:24;;;;;;;66.45;12.05;;;;;;;19.12;42.12;100902.84;5071147;28;20028;-76
2021/01/27 11:30:50;;;;;;;78.20;15.50;;;;;;;19.23;42.13;100914.09;5069675;28;20058;-77
2021/01/27 11:33:19;;;;;;;58.83;15.50;;;;;;;19.10;42.62;100916.22;5070418;28;20037;-77
2021/01/27 11:35:46;;;;;;;29.35;15.80;;;;;;;19.23;42.21;100920.44;5069401;28;20039;-78
2021/01/27 11:38:12;;;;;;;29.63;11.20;;;;;;;19.32;42.35;100921.00;5069281;28;20025;-78
2021/01/27 11:40:38;;;;;;;38.88;10.15;;;;;;;19.36;41.86;100916.34;5071155;28;20016;-81
2021/01/27 11:43:04;;;;;;;48.38;16.95;;;;;;;19.34;41.99;100926.16;5072828;28;20024;-79
2021/01/27 11:45:29;;;;;;;33.13;15.60;;;;;;;19.53;41.92;100919.78;5073745;28;20481;-80